createdAt,value
2017-05-23T00:00:56.810Z,1011.18
2017-05-23T00:02:07.838Z,1011.14
2017-05-23T00:03:18.902Z,1011.18
2017-05-23T00:04:29.923Z,1011.19
2017-05-23T00:05:40.940Z,1011.22
2017-05-23T00:06:52.151Z,1011.22
2017-05-23T00:08:03.159Z,1011.21
2017-05-23T00:09:14.430Z,1011.25
2017-05-23T00:10:25.452Z,1011.19
2017-05-23T00:11:36.453Z,1011.21
2017-05-23T00:12:47.468Z,1011.2
2017-05-23T00:13:58.701Z,1011.2
2017-05-23T00:15:09.966Z,1011.19
2017-05-23T00:16:21.190Z,1011.2
2017-05-23T00:17:32.207Z,1011.16
2017-05-23T00:18:43.244Z,1011.14
2017-05-23T00:19:54.256Z,1011.13
2017-05-23T00:21:05.319Z,1011.1
2017-05-23T00:22:16.337Z,1011.09
2017-05-23T00:23:27.346Z,1011.09
2017-05-23T00:24:38.422Z,1011.11
2017-05-23T00:25:49.439Z,1011.09
2017-05-23T00:27:00.702Z,1011.12
2017-05-23T00:28:11.926Z,1011.07
2017-05-23T00:29:23.004Z,1011.06
2017-05-23T00:30:34.020Z,1011.03
2017-05-23T00:31:45.233Z,1011.07
2017-05-23T00:32:56.499Z,1011.06
2017-05-23T00:34:07.715Z,1011.01
2017-05-23T00:35:18.730Z,1011.04
2017-05-23T00:36:29.736Z,1011.08
2017-05-23T00:37:40.749Z,1011.07
2017-05-23T00:38:51.825Z,1011.07
2017-05-23T00:40:02.846Z,1011.05
2017-05-23T00:41:13.853Z,1011.01
2017-05-23T00:42:24.868Z,1010.97
2017-05-23T00:43:35.881Z,1010.97
2017-05-23T00:44:46.955Z,1011
2017-05-23T00:45:57.975Z,1010.97
2017-05-23T00:47:08.988Z,1010.98
2017-05-23T00:48:20.008Z,1010.96
2017-05-23T00:49:31.031Z,1010.98
2017-05-23T00:50:42.055Z,1010.95
2017-05-23T00:51:53.059Z,1010.95
2017-05-23T00:53:04.288Z,1010.95
2017-05-23T00:54:15.353Z,1010.95
2017-05-23T00:55:26.619Z,1010.97
2017-05-23T00:56:37.648Z,1010.93
2017-05-23T00:57:48.869Z,1010.93
2017-05-23T00:58:59.886Z,1010.95
2017-05-23T01:00:10.889Z,1010.93
2017-05-23T01:01:21.961Z,1010.93
2017-05-23T01:02:33.185Z,1010.99
2017-05-23T01:03:44.196Z,1011.01
2017-05-23T01:04:55.206Z,1011.02
2017-05-23T01:06:06.423Z,1011.01
2017-05-23T01:07:17.482Z,1011.01
2017-05-23T01:08:28.709Z,1011.01
2017-05-23T01:09:39.724Z,1011.02
2017-05-23T01:10:50.741Z,1011.01
2017-05-23T01:12:01.753Z,1010.99
2017-05-23T01:13:12.823Z,1011.01
2017-05-23T01:14:23.832Z,1010.96
2017-05-23T01:15:34.839Z,1010.97
2017-05-23T01:16:45.855Z,1010.95
2017-05-23T01:17:56.869Z,1011
2017-05-23T01:19:07.947Z,1010.95
2017-05-23T01:20:18.972Z,1010.99
2017-05-23T01:21:29.977Z,1010.96
2017-05-23T01:22:40.993Z,1010.94
2017-05-23T01:23:52.212Z,1010.96
2017-05-23T01:25:03.288Z,1010.96
2017-05-23T01:26:14.510Z,1010.95
2017-05-23T01:27:25.516Z,1010.98
2017-05-23T01:28:36.537Z,1010.98
2017-05-23T01:29:47.567Z,1010.96
2017-05-23T01:30:58.687Z,1010.96
2017-05-23T01:32:09.701Z,1010.96
2017-05-23T01:33:20.921Z,1010.96
2017-05-23T01:34:31.941Z,1010.99
2017-05-23T01:35:42.954Z,1010.97
2017-05-23T01:36:54.009Z,1010.98
2017-05-23T01:38:05.019Z,1010.98
2017-05-23T01:39:16.036Z,1010.96
2017-05-23T01:40:27.246Z,1010.94
2017-05-23T01:41:38.463Z,1010.96
2017-05-23T01:42:49.727Z,1010.91
2017-05-23T01:44:00.742Z,1010.95
2017-05-23T01:45:12.013Z,1010.91
2017-05-23T01:46:23.047Z,1010.91
2017-05-23T01:47:34.067Z,1010.88
2017-05-23T01:48:45.133Z,1010.89
2017-05-23T01:49:56.163Z,1010.88
2017-05-23T01:51:07.179Z,1010.9
2017-05-23T01:52:18.195Z,1010.83
2017-05-23T01:53:29.211Z,1010.87
2017-05-23T01:54:40.277Z,1010.81
2017-05-23T01:55:51.289Z,1010.8
2017-05-23T01:57:02.303Z,1010.82
2017-05-23T01:58:13.329Z,1010.82
2017-05-23T01:59:24.337Z,1010.82
2017-05-23T02:00:35.355Z,1010.87
2017-05-23T02:01:46.375Z,1010.89
2017-05-23T02:02:57.395Z,1010.85
2017-05-23T02:04:08.404Z,1010.88
2017-05-23T02:05:19.465Z,1010.88
2017-05-23T02:06:30.678Z,1010.89
2017-05-23T02:07:41.686Z,1010.87
2017-05-23T02:08:52.700Z,1010.89
2017-05-23T02:10:03.713Z,1010.88
2017-05-23T02:11:14.779Z,1010.9
2017-05-23T02:12:26.198Z,1010.9
2017-05-23T02:13:37.221Z,1010.88
2017-05-23T02:14:48.244Z,1010.85
2017-05-23T02:15:59.266Z,1010.88
2017-05-23T02:17:10.323Z,1010.85
2017-05-23T02:18:21.328Z,1010.87
2017-05-23T02:19:32.351Z,1010.86
2017-05-23T02:20:43.371Z,1010.87
2017-05-23T02:21:54.386Z,1010.9
2017-05-23T02:23:05.660Z,1010.92
2017-05-23T02:24:16.685Z,1010.94
2017-05-23T02:25:27.734Z,1010.97
2017-05-23T02:26:38.742Z,1010.93
2017-05-23T02:27:49.983Z,1010.91
2017-05-23T02:29:01.056Z,1010.89
2017-05-23T02:30:12.273Z,1010.89
2017-05-23T02:31:23.489Z,1010.87
2017-05-23T02:32:34.520Z,1010.92
2017-05-23T02:33:45.730Z,1010.9
2017-05-23T02:34:56.784Z,1010.94
2017-05-23T02:36:07.998Z,1010.9
2017-05-23T02:37:19.016Z,1010.91
2017-05-23T02:38:30.032Z,1010.93
2017-05-23T02:39:41.253Z,1010.98
2017-05-23T02:40:52.262Z,1010.97
2017-05-23T02:42:03.279Z,1010.95
2017-05-23T02:43:14.488Z,1010.94
2017-05-23T02:44:25.505Z,1010.91
2017-05-23T02:45:36.572Z,1010.91
2017-05-23T02:46:47.587Z,1010.9
2017-05-23T02:47:58.804Z,1010.87
2017-05-23T02:49:09.815Z,1010.92
2017-05-23T02:50:20.834Z,1010.87
2017-05-23T02:51:31.904Z,1010.91
2017-05-23T02:52:43.119Z,1010.99
2017-05-23T02:53:54.145Z,1010.96
2017-05-23T02:55:05.362Z,1010.95
2017-05-23T02:56:16.368Z,1010.97
2017-05-23T02:57:27.428Z,1010.94
2017-05-23T02:58:38.439Z,1010.93
2017-05-23T02:59:49.450Z,1010.87
2017-05-23T03:01:00.460Z,1010.91
2017-05-23T03:02:11.722Z,1010.87
2017-05-23T03:03:22.803Z,1010.91
2017-05-23T03:04:33.805Z,1010.89
2017-05-23T03:05:44.829Z,1010.88
2017-05-23T03:06:55.839Z,1010.88
2017-05-23T03:08:06.853Z,1010.88
2017-05-23T03:09:17.915Z,1010.8
2017-05-23T03:10:28.918Z,1010.79
2017-05-23T03:11:39.924Z,1010.73
2017-05-23T03:12:50.942Z,1010.72
2017-05-23T03:14:01.955Z,1010.71
2017-05-23T03:15:13.008Z,1010.68
2017-05-23T03:16:24.012Z,1010.73
2017-05-23T03:17:35.078Z,1010.71
2017-05-23T03:18:46.096Z,1010.69
2017-05-23T03:19:57.510Z,1010.75
2017-05-23T03:21:08.781Z,1010.78
2017-05-23T03:22:19.796Z,1010.76
2017-05-23T03:23:30.799Z,1010.71
2017-05-23T03:24:41.821Z,1010.72
2017-05-23T03:25:52.834Z,1010.71
2017-05-23T03:27:03.892Z,1010.7
2017-05-23T03:28:15.106Z,1010.66
2017-05-23T03:29:26.130Z,1010.64
2017-05-23T03:30:37.143Z,1010.67
2017-05-23T03:31:48.356Z,1010.64
2017-05-23T03:32:59.432Z,1010.65
2017-05-23T03:34:10.644Z,1010.64
2017-05-23T03:35:21.672Z,1010.66
2017-05-23T03:36:32.685Z,1010.67
2017-05-23T03:37:43.696Z,1010.65
2017-05-23T03:38:54.958Z,1010.67
2017-05-23T03:40:05.958Z,1010.63
2017-05-23T03:41:16.970Z,1010.62
2017-05-23T03:42:28.047Z,1010.64
2017-05-23T03:43:39.058Z,1010.66
2017-05-23T03:44:50.323Z,1010.66
2017-05-23T03:46:01.338Z,1010.67
2017-05-23T03:47:12.562Z,1010.65
2017-05-23T03:48:23.654Z,1010.67
2017-05-23T03:49:34.868Z,1010.66
2017-05-23T03:50:45.897Z,1010.65
2017-05-23T03:51:57.119Z,1010.69
2017-05-23T03:53:08.124Z,1010.64
2017-05-23T03:54:19.140Z,1010.64
2017-05-23T03:55:30.206Z,1010.65
2017-05-23T03:56:41.414Z,1010.66
2017-05-23T03:57:52.624Z,1010.63
2017-05-23T03:59:03.633Z,1010.61
2017-05-23T04:00:14.642Z,1010.64
2017-05-23T04:01:25.710Z,1010.62
2017-05-23T04:02:36.723Z,1010.62
2017-05-23T04:03:47.728Z,1010.63
2017-05-23T04:04:58.748Z,1010.64
2017-05-23T04:06:09.974Z,1010.68
2017-05-23T04:07:21.038Z,1010.65
2017-05-23T04:08:32.046Z,1010.64
2017-05-23T04:09:43.068Z,1010.67
2017-05-23T04:10:54.084Z,1010.69
2017-05-23T04:12:05.350Z,1010.69
2017-05-23T04:13:16.416Z,1010.64
2017-05-23T04:14:27.442Z,1010.66
2017-05-23T04:15:38.458Z,1010.67
2017-05-23T04:16:49.680Z,1010.67
2017-05-23T04:18:00.702Z,1010.67
2017-05-23T04:19:11.982Z,1010.69
2017-05-23T04:20:22.987Z,1010.66
2017-05-23T04:21:33.993Z,1010.62
2017-05-23T04:22:44.999Z,1010.58
2017-05-23T04:23:55.991Z,1010.63
2017-05-23T04:25:07.458Z,1010.62
2017-05-23T04:26:18.474Z,1010.63
2017-05-23T04:27:29.492Z,1010.7
2017-05-23T04:28:40.507Z,1010.69
2017-05-23T04:29:51.713Z,1010.7
2017-05-23T04:31:02.825Z,1010.68
2017-05-23T04:32:14.035Z,1010.67
2017-05-23T04:33:25.053Z,1010.68
2017-05-23T04:34:36.135Z,1010.67
2017-05-23T04:35:47.356Z,1010.7
2017-05-23T04:36:58.417Z,1010.75
2017-05-23T04:38:09.662Z,1010.8
2017-05-23T04:39:20.680Z,1010.78
2017-05-23T04:40:31.697Z,1010.77
2017-05-23T04:41:42.716Z,1010.76
2017-05-23T04:42:53.777Z,1010.78
2017-05-23T04:44:04.790Z,1010.76
2017-05-23T04:45:16.019Z,1010.78
2017-05-23T04:46:27.238Z,1010.83
2017-05-23T04:47:38.251Z,1010.81
2017-05-23T04:48:49.312Z,1010.8
2017-05-23T04:50:00.344Z,1010.81
2017-05-23T04:51:11.356Z,1010.8
2017-05-23T04:52:22.360Z,1010.88
2017-05-23T04:53:33.379Z,1010.79
2017-05-23T04:54:44.661Z,1010.82
2017-05-23T04:55:55.889Z,1010.85
2017-05-23T04:57:06.897Z,1010.86
2017-05-23T04:58:17.909Z,1010.9
2017-05-23T04:59:28.924Z,1010.91
2017-05-23T05:00:39.942Z,1010.84
2017-05-23T05:01:50.971Z,1010.89
2017-05-23T05:03:01.991Z,1010.87
2017-05-23T05:04:13.007Z,1010.86
2017-05-23T05:05:24.080Z,1010.91
2017-05-23T05:06:35.089Z,1010.94
2017-05-23T05:07:46.123Z,1010.93
2017-05-23T05:08:57.140Z,1010.92
2017-05-23T05:10:08.156Z,1010.9
2017-05-23T05:11:19.430Z,1010.92
2017-05-23T05:12:30.449Z,1010.9
2017-05-23T05:13:41.472Z,1010.91
2017-05-23T05:14:52.704Z,1010.89
2017-05-23T05:16:03.726Z,1010.92
2017-05-23T05:17:14.802Z,1010.91
2017-05-23T05:18:25.819Z,1010.97
2017-05-23T05:19:36.840Z,1010.94
2017-05-23T05:20:47.859Z,1011.01
2017-05-23T05:21:58.873Z,1010.99
2017-05-23T05:23:09.998Z,1010.99
2017-05-23T05:24:21.223Z,1011
2017-05-23T05:25:32.236Z,1011.02
2017-05-23T05:26:43.244Z,1011
2017-05-23T05:27:54.268Z,1011
2017-05-23T05:29:05.337Z,1011.02
2017-05-23T05:30:16.357Z,1011.01
2017-05-23T05:31:27.771Z,1011
2017-05-23T05:32:38.805Z,1011.01
2017-05-23T05:33:49.828Z,1010.99
2017-05-23T05:35:00.902Z,1011
2017-05-23T05:36:11.923Z,1011.01
2017-05-23T05:37:22.956Z,1011.03
2017-05-23T05:38:34.043Z,1011.07
2017-05-23T05:39:45.067Z,1011.04
2017-05-23T05:40:56.084Z,1011.06
2017-05-23T05:42:07.307Z,1011.14
2017-05-23T05:43:18.317Z,1011.15
2017-05-23T05:44:29.338Z,1011.2
2017-05-23T05:45:40.410Z,1011.2
2017-05-23T05:46:51.433Z,1011.25
2017-05-23T05:48:02.524Z,1011.28
2017-05-23T05:49:13.528Z,1011.24
2017-05-23T05:50:24.568Z,1011.32
2017-05-23T05:51:35.840Z,1011.15
2017-05-23T05:52:46.859Z,1011.11
2017-05-23T05:53:57.888Z,1011.03
2017-05-23T05:55:08.911Z,1011.06
2017-05-23T05:56:19.923Z,1011.24
2017-05-23T05:57:31.191Z,1011.53
2017-05-23T05:58:42.423Z,1011.48
2017-05-23T05:59:53.443Z,1011.26
2017-05-23T06:01:04.668Z,1011.22
2017-05-23T06:02:16.094Z,1011.17
2017-05-23T06:03:27.167Z,1011.17
2017-05-23T06:04:38.184Z,1011.29
2017-05-23T06:05:49.208Z,1011.44
2017-05-23T06:07:00.426Z,1011.4
2017-05-23T06:08:11.452Z,1011.24
2017-05-23T06:09:22.525Z,1011.23
2017-05-23T06:10:33.550Z,1011.27
2017-05-23T06:11:44.760Z,1011.18
2017-05-23T06:12:55.781Z,1011.15
2017-05-23T06:14:06.813Z,1011.21
2017-05-23T06:15:17.895Z,1011.23
2017-05-23T06:16:28.915Z,1011.31
2017-05-23T06:17:40.064Z,1011.3
2017-05-23T06:18:51.117Z,1011.32
2017-05-23T06:20:02.139Z,1011.24
2017-05-23T06:21:13.205Z,1011.32
2017-05-23T06:22:24.228Z,1011.32
2017-05-23T06:23:35.246Z,1011.33
2017-05-23T06:24:46.284Z,1011.33
2017-05-23T06:25:57.325Z,1011.33
2017-05-23T06:27:08.603Z,1011.34
2017-05-23T06:28:19.627Z,1011.31
2017-05-23T06:29:30.658Z,1011.3
2017-05-23T06:30:41.690Z,1011.28
2017-05-23T06:31:52.921Z,1011.27
2017-05-23T06:33:04.000Z,1011.35
2017-05-23T06:34:15.225Z,1011.36
2017-05-23T06:35:26.476Z,1011.39
2017-05-23T06:36:37.498Z,1011.37
2017-05-23T06:37:48.714Z,1011.39
2017-05-23T06:38:59.804Z,1011.47
2017-05-23T06:40:10.837Z,1011.46
2017-05-23T06:41:21.912Z,1011.47
2017-05-23T06:42:32.941Z,1011.5
2017-05-23T06:43:43.970Z,1011.49
2017-05-23T06:44:55.252Z,1011.47
2017-05-23T06:46:06.268Z,1011.42
2017-05-23T06:47:17.499Z,1011.44
2017-05-23T06:48:28.536Z,1011.46
2017-05-23T06:49:39.556Z,1011.38
2017-05-23T06:50:50.589Z,1011.42
2017-05-23T06:52:01.609Z,1011.51
2017-05-23T06:53:12.635Z,1011.53
2017-05-23T06:54:23.679Z,1011.52
2017-05-23T06:55:34.758Z,1011.59
2017-05-23T06:56:45.788Z,1011.62
2017-05-23T06:57:57.027Z,1011.67
2017-05-23T06:59:08.079Z,1011.6
2017-05-23T07:00:19.107Z,1011.6
2017-05-23T07:01:30.176Z,1011.51
2017-05-23T07:02:41.220Z,1011.58
2017-05-23T07:03:52.247Z,1011.66
2017-05-23T07:05:03.281Z,1011.64
2017-05-23T07:06:14.302Z,1011.64
2017-05-23T07:07:25.380Z,1011.72
2017-05-23T07:08:36.415Z,1011.8
2017-05-23T07:09:47.991Z,1011.89
2017-05-23T07:11:01.049Z,1011.88
2017-05-23T07:12:15.033Z,1011.79
2017-05-23T07:13:29.254Z,1011.85
2017-05-23T07:14:41.912Z,1011.76
2017-05-23T07:15:55.014Z,1011.68
2017-05-23T07:17:06.454Z,1011.72
2017-05-23T07:18:18.704Z,1011.88
2017-05-23T07:19:29.735Z,1011.88
2017-05-23T07:20:41.180Z,1011.9
2017-05-23T07:21:52.603Z,1011.92
2017-05-23T07:23:03.635Z,1012.06
2017-05-23T07:24:14.711Z,1011.96
2017-05-23T07:25:26.330Z,1011.66
2017-05-23T07:26:38.714Z,1011.81
2017-05-23T07:27:49.748Z,1011.79
2017-05-23T07:29:00.779Z,1011.7
2017-05-23T07:30:11.795Z,1012.03
2017-05-23T07:31:23.022Z,1011.95
2017-05-23T07:32:34.052Z,1012.06
2017-05-23T07:33:45.088Z,1012.51
2017-05-23T07:34:56.344Z,1012.56
2017-05-23T07:36:07.416Z,1012.64
2017-05-23T07:37:18.666Z,1012.71
2017-05-23T07:38:29.689Z,1012.72
2017-05-23T07:39:40.727Z,1012.7
2017-05-23T07:40:51.819Z,1012.79
2017-05-23T07:42:02.837Z,1012.77
2017-05-23T07:43:13.861Z,1012.81
2017-05-23T07:44:24.896Z,1012.93
2017-05-23T07:45:36.128Z,1013.32
2017-05-23T07:46:47.195Z,1013.61
2017-05-23T07:47:58.224Z,1013.75
2017-05-23T07:49:09.262Z,1012.67
2017-05-23T07:50:20.302Z,1014.22
2017-05-23T07:51:31.336Z,1014.29
2017-05-23T07:52:42.627Z,1014.35
2017-05-23T07:53:53.657Z,1014.69
2017-05-23T07:55:04.696Z,1015.09
2017-05-23T07:56:15.923Z,1014.61
2017-05-23T07:57:26.965Z,1015.23
2017-05-23T07:58:38.053Z,1014.91
2017-05-23T07:59:49.091Z,1013.63
2017-05-23T08:01:00.130Z,1012.52
2017-05-23T08:02:11.158Z,1011.84
2017-05-23T08:03:22.184Z,1014.1
2017-05-23T08:04:33.286Z,1015.24
2017-05-23T08:05:44.318Z,1017.37
2017-05-23T08:06:55.348Z,1017.48
2017-05-23T08:08:06.366Z,1015.19
2017-05-23T08:09:17.391Z,1014.43
2017-05-23T08:10:28.418Z,1013.34
2017-05-23T08:11:39.532Z,1017.99
2017-05-23T08:12:51.317Z,1014.77
2017-05-23T08:14:03.431Z,1017.13
2017-05-23T08:15:14.499Z,1016.92
2017-05-23T08:16:25.719Z,1016.21
2017-05-23T08:17:36.965Z,1015.12
2017-05-23T08:18:48.014Z,1016.16
2017-05-23T08:19:59.044Z,1015.1
2017-05-23T08:21:10.331Z,1015.73
2017-05-23T08:22:21.365Z,1015.86
2017-05-23T08:23:32.390Z,1015.83
2017-05-23T08:24:43.435Z,1015.86
2017-05-23T08:25:54.468Z,1015.65
2017-05-23T08:27:05.545Z,1014.26
2017-05-23T08:28:16.576Z,1013.22
2017-05-23T08:29:27.622Z,1013.11
2017-05-23T08:30:38.640Z,1012.92
2017-05-23T08:31:49.669Z,1012.23
2017-05-23T08:33:00.750Z,1012.46
2017-05-23T08:34:11.775Z,1012.66
2017-05-23T08:35:22.988Z,1012.72
2017-05-23T08:36:34.021Z,1012.76
2017-05-23T08:37:45.111Z,1012.67
2017-05-23T08:38:56.262Z,1012.94
2017-05-23T08:40:07.297Z,1012.9
2017-05-23T08:41:18.559Z,1013.01
2017-05-23T08:42:29.586Z,1013.21
2017-05-23T08:43:40.638Z,1013
2017-05-23T08:44:51.733Z,1012.95
2017-05-23T08:46:02.771Z,1013.16
2017-05-23T08:47:13.795Z,1013.44
2017-05-23T08:48:25.019Z,1013.77
2017-05-23T08:49:36.054Z,1013.87
2017-05-23T08:50:47.086Z,1014.12
2017-05-23T08:51:58.101Z,1013.41
2017-05-23T08:53:09.129Z,1013.86
2017-05-23T08:54:20.161Z,1013.9
2017-05-23T08:55:31.255Z,1014.02
2017-05-23T08:56:42.301Z,1013.95
2017-05-23T08:57:53.336Z,1014.08
2017-05-23T08:59:04.381Z,1014.24
2017-05-23T09:00:15.416Z,1014.05
2017-05-23T09:01:26.495Z,1013.78
2017-05-23T09:02:37.735Z,1014.18
2017-05-23T09:03:48.966Z,1014.48
2017-05-23T09:05:00.199Z,1014.97
2017-05-23T09:06:11.226Z,1014.81
2017-05-23T09:07:22.307Z,1014.96
2017-05-23T09:08:33.333Z,1014.31
2017-05-23T09:09:44.772Z,1015.15
2017-05-23T09:10:56.016Z,1015.04
2017-05-23T09:12:07.052Z,1014.77
2017-05-23T09:13:18.147Z,1014.46
2017-05-23T09:14:29.379Z,1014.27
2017-05-23T09:15:40.614Z,1014.53
2017-05-23T09:16:51.720Z,1014.71
2017-05-23T09:18:02.746Z,1013.12
2017-05-23T09:19:14.028Z,1013.37
2017-05-23T09:20:25.069Z,1014.94
2017-05-23T09:21:36.107Z,1015.17
2017-05-23T09:22:47.143Z,1014.81
2017-05-23T09:23:58.216Z,1012.28
2017-05-23T09:25:09.298Z,1012.79
2017-05-23T09:26:20.339Z,1015.36
2017-05-23T09:27:31.370Z,1016.32
2017-05-23T09:28:42.408Z,1015.88
2017-05-23T09:29:53.435Z,1015.46
2017-05-23T09:31:04.507Z,1014.82
2017-05-23T09:32:15.592Z,1012.33
2017-05-23T09:33:26.836Z,1014.03
2017-05-23T09:34:38.061Z,1012.48
2017-05-23T09:35:49.090Z,1015.61
2017-05-23T09:37:00.179Z,1012.25
2017-05-23T09:38:11.213Z,1014.52
2017-05-23T09:39:22.267Z,1014.49
2017-05-23T09:40:33.505Z,1012.1
2017-05-23T09:41:44.741Z,1012.32
2017-05-23T09:42:56.018Z,1016.99
2017-05-23T09:44:07.054Z,1015.66
2017-05-23T09:45:18.082Z,1012.21
2017-05-23T09:46:29.107Z,1017.05
2017-05-23T09:47:40.133Z,1017.22
2017-05-23T09:48:51.227Z,1017.51
2017-05-23T09:50:02.260Z,1012.51
2017-05-23T09:51:13.288Z,1012.42
2017-05-23T09:52:24.521Z,1013.24
2017-05-23T09:53:35.757Z,1015.2
2017-05-23T09:54:46.849Z,1012.4
2017-05-23T09:55:57.892Z,1014.63
2017-05-23T09:57:08.910Z,1012.03
2017-05-23T09:58:19.959Z,1013.31
2017-05-23T09:59:30.986Z,1011.97
2017-05-23T10:00:42.223Z,1014.85
2017-05-23T10:01:53.459Z,1014.68
2017-05-23T10:03:04.491Z,1014.88
2017-05-23T10:04:15.508Z,1015.2
2017-05-23T10:05:26.604Z,1014.89
2017-05-23T10:06:37.831Z,1015.4
2017-05-23T10:07:48.871Z,1012.64
2017-05-23T10:08:59.904Z,1014.88
2017-05-23T10:10:10.939Z,1014.21
2017-05-23T10:11:22.091Z,1015.49
2017-05-23T10:12:33.128Z,1015.25
2017-05-23T10:13:44.568Z,1015.84
2017-05-23T10:14:55.614Z,1015.32
2017-05-23T10:16:06.632Z,1014.17
2017-05-23T10:17:17.723Z,1014.87
2017-05-23T10:18:28.765Z,1015.25
2017-05-23T10:19:39.785Z,1014.97
2017-05-23T10:20:50.823Z,1013.73
2017-05-23T10:22:01.908Z,1012.93
2017-05-23T10:23:12.993Z,1014.17
2017-05-23T10:24:24.020Z,1014.53
2017-05-23T10:25:35.047Z,1013.4
2017-05-23T10:26:46.079Z,1014.64
2017-05-23T10:27:57.107Z,1014.76
2017-05-23T10:29:08.184Z,1012.46
2017-05-23T10:30:19.217Z,1012.16
2017-05-23T10:31:30.242Z,1012.09
2017-05-23T10:32:41.265Z,1014.25
2017-05-23T10:33:52.318Z,1012.41
2017-05-23T10:35:04.856Z,1012.15
2017-05-23T10:36:15.894Z,1013.68
2017-05-23T10:37:27.115Z,1013.65
2017-05-23T10:38:38.149Z,1013.48
2017-05-23T10:39:49.183Z,1012.19
2017-05-23T10:41:00.289Z,1012.21
2017-05-23T10:42:11.320Z,1012.59
2017-05-23T10:43:22.356Z,1012.29
2017-05-23T10:44:33.388Z,1012.7
2017-05-23T10:45:44.428Z,1012.81
2017-05-23T10:46:55.713Z,1012.34
2017-05-23T10:48:06.741Z,1012.21
2017-05-23T10:49:17.764Z,1012.58
2017-05-23T10:50:28.989Z,1012.62
2017-05-23T10:51:40.002Z,1012.92
2017-05-23T10:52:51.085Z,1013.02
2017-05-23T10:54:02.118Z,1013.09
2017-05-23T10:55:13.343Z,1013.31
2017-05-23T10:56:24.365Z,1013.48
2017-05-23T10:57:35.591Z,1013.5
2017-05-23T10:58:46.685Z,1014.01
2017-05-23T10:59:57.718Z,1013.08
2017-05-23T11:01:08.736Z,1013.96
2017-05-23T11:02:19.763Z,1013.57
2017-05-23T11:03:30.789Z,1013.35
2017-05-23T11:04:41.866Z,1013.07
2017-05-23T11:05:52.907Z,1013.09
2017-05-23T11:07:03.926Z,1013.55
2017-05-23T11:08:14.960Z,1013.29
2017-05-23T11:09:25.992Z,1012.95
2017-05-23T11:10:37.012Z,1012.76
2017-05-23T11:11:48.045Z,1012.85
2017-05-23T11:12:59.080Z,1012.9
2017-05-23T11:14:10.108Z,1012.92
2017-05-23T11:15:21.183Z,1012.34
2017-05-23T11:16:32.208Z,1012.59
2017-05-23T11:17:43.311Z,1012.96
2017-05-23T11:18:54.336Z,1012.37
2017-05-23T11:20:05.373Z,1012.39
2017-05-23T11:21:16.459Z,1012.31
2017-05-23T11:22:27.692Z,1012.68
2017-05-23T11:23:38.714Z,1012.61
2017-05-23T11:24:49.738Z,1012.63
2017-05-23T11:26:00.776Z,1012.59
2017-05-23T11:27:11.865Z,1012.27
2017-05-23T11:28:22.898Z,1012.38
2017-05-23T11:29:33.934Z,1012.43
2017-05-23T11:30:45.018Z,1012.45
2017-05-23T11:31:56.055Z,1012.49
2017-05-23T11:33:07.132Z,1012.45
2017-05-23T11:34:18.561Z,1012.44
2017-05-23T11:35:29.661Z,1012.51
2017-05-23T11:36:40.696Z,1012.48
2017-05-23T11:37:51.732Z,1012.5
2017-05-23T11:39:02.804Z,1012.63
2017-05-23T11:40:13.843Z,1012.47
2017-05-23T11:41:24.880Z,1012.66
2017-05-23T11:42:35.911Z,1012.69
2017-05-23T11:43:46.940Z,1012.69
2017-05-23T11:44:58.025Z,1012.68
2017-05-23T11:46:09.271Z,1012.77
2017-05-23T11:47:20.494Z,1012.63
2017-05-23T11:48:31.524Z,1012.71
2017-05-23T11:49:42.754Z,1012.67
2017-05-23T11:50:53.788Z,1012.61
2017-05-23T11:52:04.807Z,1012.64
2017-05-23T11:53:15.835Z,1012.69
2017-05-23T11:54:26.876Z,1012.65
2017-05-23T11:55:37.953Z,1012.64
2017-05-23T11:56:48.969Z,1012.64
2017-05-23T11:57:59.991Z,1012.51
2017-05-23T11:59:11.027Z,1012.52
2017-05-23T12:00:22.064Z,1012.57
2017-05-23T12:01:33.151Z,1012.53
2017-05-23T12:02:44.178Z,1012.57
2017-05-23T12:03:55.393Z,1012.55
2017-05-23T12:05:06.628Z,1012.59
2017-05-23T12:06:17.638Z,1012.55
2017-05-23T12:07:28.709Z,1012.59
2017-05-23T12:08:39.734Z,1012.53
2017-05-23T12:09:50.753Z,1012.49
2017-05-23T12:11:01.798Z,1012.53
2017-05-23T12:12:13.231Z,1012.52
2017-05-23T12:13:24.319Z,1012.45
2017-05-23T12:14:35.351Z,1012.51
2017-05-23T12:15:46.374Z,1012.53
2017-05-23T12:16:57.402Z,1012.52
2017-05-23T12:18:08.629Z,1012.4
2017-05-23T12:19:19.707Z,1012.41
2017-05-23T12:20:30.742Z,1012.44
2017-05-23T12:21:41.970Z,1012.4
2017-05-23T12:22:52.991Z,1012.3
2017-05-23T12:24:04.010Z,1012.38
2017-05-23T12:25:15.082Z,1012.37
2017-05-23T12:26:26.520Z,1012.33
2017-05-23T12:27:37.547Z,1012.4
2017-05-23T12:28:48.598Z,1012.52
2017-05-23T12:29:59.683Z,1012.56
2017-05-23T12:31:10.768Z,1012.55
2017-05-23T12:32:22.001Z,1012.48
2017-05-23T12:33:33.045Z,1012.44
2017-05-23T12:34:44.076Z,1012.44
2017-05-23T12:35:55.597Z,1012.46
2017-05-23T12:37:07.646Z,1012.51
2017-05-23T12:38:18.719Z,1012.53
2017-05-23T12:39:29.972Z,1012.55
2017-05-23T12:40:41.008Z,1012.53
2017-05-23T12:41:52.245Z,1012.61
2017-05-23T12:43:03.316Z,1012.6
2017-05-23T12:44:14.365Z,1012.58
2017-05-23T12:45:25.601Z,1012.53
2017-05-23T12:46:36.701Z,1012.53
2017-05-23T12:47:47.723Z,1012.58
2017-05-23T12:48:58.944Z,1012.63
2017-05-23T12:50:09.980Z,1012.58
2017-05-23T12:51:21.012Z,1012.6
2017-05-23T12:52:32.039Z,1012.66
2017-05-23T12:53:43.068Z,1012.59
2017-05-23T12:54:54.133Z,1012.55
2017-05-23T12:56:05.359Z,1012.55
2017-05-23T12:57:16.392Z,1012.45
2017-05-23T12:58:27.472Z,1012.56
2017-05-23T12:59:38.501Z,1012.61
2017-05-23T13:00:49.545Z,1012.57
2017-05-23T13:02:00.768Z,1012.61
2017-05-23T13:03:11.901Z,1012.64
2017-05-23T13:04:23.135Z,1012.54
2017-05-23T13:05:34.210Z,1012.56
2017-05-23T13:06:45.232Z,1012.54
2017-05-23T13:07:56.450Z,1012.58
2017-05-23T13:09:07.496Z,1012.56
2017-05-23T13:10:18.523Z,1012.55
2017-05-23T13:11:29.827Z,1012.59
2017-05-23T13:12:41.263Z,1012.59
2017-05-23T13:13:53.112Z,1012.62
2017-05-23T13:15:06.918Z,1012.63
2017-05-23T13:16:17.956Z,1012.57
2017-05-23T13:17:29.020Z,1012.58
2017-05-23T13:18:40.052Z,1012.58
2017-05-23T13:19:51.270Z,1012.53
2017-05-23T13:21:03.835Z,1012.54
2017-05-23T13:22:14.894Z,1012.62
2017-05-23T13:23:25.977Z,1012.66
2017-05-23T13:24:37.220Z,1012.75
2017-05-23T13:25:48.456Z,1012.64
2017-05-23T13:26:59.483Z,1012.69
2017-05-23T13:28:10.757Z,1012.74
2017-05-23T13:29:21.846Z,1012.68
2017-05-23T13:30:32.929Z,1012.67
2017-05-23T13:31:43.989Z,1012.66
2017-05-23T13:32:55.027Z,1012.61
2017-05-23T13:34:06.065Z,1012.6
2017-05-23T13:35:17.145Z,1012.65
2017-05-23T13:36:28.165Z,1012.67
2017-05-23T13:37:39.395Z,1012.68
2017-05-23T13:38:50.666Z,1012.69
2017-05-23T13:40:01.688Z,1012.68
2017-05-23T13:41:12.814Z,1012.63
2017-05-23T13:42:23.829Z,1012.62
2017-05-23T13:43:34.893Z,1012.65
2017-05-23T13:44:45.926Z,1012.64
2017-05-23T13:45:56.947Z,1012.74
2017-05-23T13:47:08.028Z,1012.69
2017-05-23T13:48:19.391Z,1012.65
2017-05-23T13:49:31.242Z,1012.61
2017-05-23T13:50:42.278Z,1012.58
2017-05-23T13:51:53.304Z,1012.58
2017-05-23T13:53:04.582Z,1012.6
2017-05-23T13:54:15.610Z,1012.52
2017-05-23T13:55:26.655Z,1012.54
2017-05-23T13:56:37.692Z,1012.57
2017-05-23T13:57:48.916Z,1012.61
2017-05-23T13:58:59.994Z,1012.61
2017-05-23T14:00:11.031Z,1012.61
2017-05-23T14:01:22.468Z,1012.62
2017-05-23T14:02:33.489Z,1012.66
2017-05-23T14:03:44.512Z,1012.68
2017-05-23T14:04:55.581Z,1012.66
2017-05-23T14:06:06.602Z,1012.62
2017-05-23T14:07:17.628Z,1012.69
2017-05-23T14:08:28.681Z,1012.66
2017-05-23T14:09:39.697Z,1012.62
2017-05-23T14:10:50.980Z,1012.72
2017-05-23T14:12:02.003Z,1012.7
2017-05-23T14:13:13.037Z,1012.74
2017-05-23T14:14:24.064Z,1012.83
2017-05-23T14:15:35.294Z,1012.73
2017-05-23T14:16:46.373Z,1012.8
2017-05-23T14:17:57.419Z,1012.76
2017-05-23T14:19:08.459Z,1012.77
2017-05-23T14:20:19.482Z,1012.77
2017-05-23T14:21:30.508Z,1012.79
2017-05-23T14:22:41.580Z,1012.84
2017-05-23T14:23:52.621Z,1012.8